createdAt,value
2018-09-04T00:00:10.144Z,56.33
2018-09-04T00:02:39.723Z,53.63
2018-09-04T00:05:09.568Z,52.20
2018-09-04T00:07:39.357Z,57.23
2018-09-04T00:10:09.317Z,56.37
2018-09-04T00:12:38.956Z,59.57
2018-09-04T00:15:11.671Z,50.27
2018-09-04T00:17:41.225Z,56.40
2018-09-04T00:20:11.348Z,53.10
2018-09-04T00:22:40.985Z,52.83
2018-09-04T00:25:10.772Z,54.97
2018-09-04T00:27:40.630Z,57.43
2018-09-04T00:30:10.316Z,61.87
2018-09-04T00:32:39.876Z,61.77
2018-09-04T00:35:09.610Z,60.83
2018-09-04T00:37:39.201Z,63.60
2018-09-04T00:40:08.990Z,61.60
2018-09-04T00:42:38.661Z,64.27
2018-09-04T00:45:08.317Z,66.67
2018-09-04T00:47:37.914Z,64.17
2018-09-04T00:50:08.056Z,69.57
2018-09-04T00:52:37.740Z,67.43
2018-09-04T00:55:07.386Z,71.30
2018-09-04T00:57:37.101Z,74.77
2018-09-04T01:00:07.259Z,78.97
2018-09-04T01:02:37.007Z,77.97
2018-09-04T01:05:06.759Z,81.00
2018-09-04T01:07:36.324Z,81.07
2018-09-04T01:10:06.026Z,80.77
2018-09-04T01:12:35.581Z,81.53
2018-09-04T01:15:05.320Z,85.70
2018-09-04T01:17:34.863Z,87.00
2018-09-04T01:20:04.556Z,84.27
2018-09-04T01:22:34.096Z,86.30
2018-09-04T01:25:03.697Z,87.60
2018-09-04T01:27:33.270Z,86.80
2018-09-04T01:30:02.892Z,84.53
2018-09-04T01:32:32.514Z,83.10
2018-09-04T01:35:02.186Z,88.00
2018-09-04T01:37:31.724Z,89.30
2018-09-04T01:40:01.281Z,85.87
2018-09-04T01:42:30.882Z,86.60
2018-09-04T01:45:00.522Z,90.83
2018-09-04T01:47:30.088Z,85.53
2018-09-04T01:49:59.709Z,86.40
2018-09-04T01:52:29.258Z,86.57
2018-09-04T01:54:59.129Z,92.17
2018-09-04T01:57:28.650Z,91.47
2018-09-04T01:59:58.410Z,88.70
2018-09-04T02:02:27.963Z,81.57
2018-09-04T02:04:57.581Z,85.73
2018-09-04T02:07:27.422Z,88.97
2018-09-04T02:09:57.010Z,86.63
2018-09-04T02:12:26.608Z,88.50
2018-09-04T02:14:56.248Z,85.87
2018-09-04T02:17:25.976Z,88.47
2018-09-04T02:19:55.743Z,90.63
2018-09-04T02:22:25.405Z,88.80
2018-09-04T02:24:54.937Z,84.43
2018-09-04T02:27:24.862Z,81.23
2018-09-04T02:29:54.515Z,87.33
2018-09-04T02:32:24.383Z,87.07
2018-09-04T02:34:53.934Z,85.70
2018-09-04T02:37:23.807Z,80.27
2018-09-04T02:39:53.377Z,84.83
2018-09-04T02:42:23.137Z,83.07
2018-09-04T02:44:52.698Z,82.17
2018-09-04T02:47:22.613Z,86.27
2018-09-04T02:49:52.176Z,79.93
2018-09-04T02:52:21.814Z,78.77
2018-09-04T02:54:51.437Z,82.60
2018-09-04T02:57:20.978Z,84.33
2018-09-04T02:59:50.565Z,81.63
2018-09-04T03:02:20.162Z,79.63
2018-09-04T03:04:49.702Z,79.03
2018-09-04T03:07:19.344Z,80.07
2018-09-04T03:09:49.021Z,79.63
2018-09-04T03:12:18.603Z,87.17
2018-09-04T03:14:48.203Z,81.60
2018-09-04T03:17:17.824Z,82.83
2018-09-04T03:19:47.402Z,87.93
2018-09-04T03:22:17.128Z,85.73
2018-09-04T03:24:46.701Z,83.37
2018-09-04T03:27:16.297Z,82.53
2018-09-04T03:29:46.055Z,83.40
2018-09-04T03:32:15.676Z,81.37
2018-09-04T03:34:45.217Z,82.80
2018-09-04T03:37:14.880Z,82.97
2018-09-04T03:39:44.498Z,78.97
2018-09-04T03:42:14.172Z,79.77
2018-09-04T03:44:43.774Z,80.73
2018-09-04T03:47:13.417Z,78.30
2018-09-04T03:49:42.958Z,79.83
2018-09-04T03:52:12.940Z,81.13
2018-09-04T03:54:42.500Z,79.03
2018-09-04T03:57:12.112Z,76.47
2018-09-04T03:59:41.676Z,78.50
2018-09-04T04:02:11.284Z,76.73
2018-09-04T04:04:40.869Z,76.40
2018-09-04T04:07:10.559Z,75.90
2018-09-04T04:09:40.219Z,78.67
2018-09-04T04:12:09.908Z,75.33
2018-09-04T04:14:39.414Z,79.73
2018-09-04T04:17:09.123Z,79.57
2018-09-04T04:19:38.720Z,79.17
2018-09-04T04:22:08.717Z,79.77
2018-09-04T04:24:38.374Z,78.23
2018-09-04T04:27:08.014Z,72.50
2018-09-04T04:29:37.605Z,79.27
2018-09-04T04:32:07.311Z,78.00
2018-09-04T04:34:36.857Z,78.80
2018-09-04T04:37:06.520Z,77.30
2018-09-04T04:39:36.135Z,77.30
2018-09-04T04:42:05.988Z,75.57
2018-09-04T04:44:36.026Z,79.90
2018-09-04T04:47:05.673Z,74.23
2018-09-04T04:49:35.620Z,76.73
2018-09-04T04:52:05.161Z,77.63
2018-09-04T04:54:34.909Z,76.67
2018-09-04T04:57:04.491Z,76.20
2018-09-04T04:59:34.315Z,75.03
2018-09-04T05:02:04.152Z,74.83
2018-09-04T05:04:34.160Z,75.83
2018-09-04T05:07:03.669Z,74.37
2018-09-04T05:09:33.337Z,73.03
2018-09-04T05:12:03.044Z,70.07
2018-09-04T05:14:32.704Z,71.90
2018-09-04T05:17:02.408Z,66.10
2018-09-04T05:19:31.995Z,67.93
2018-09-04T05:22:01.624Z,64.73
2018-09-04T05:24:31.252Z,66.27
2018-09-04T05:27:00.865Z,65.03
2018-09-04T05:29:30.585Z,63.77
2018-09-04T05:32:04.568Z,64.93
2018-09-04T05:34:34.180Z,65.60
2018-09-04T05:37:03.827Z,63.57
2018-09-04T05:39:33.471Z,64.17
2018-09-04T05:42:08.144Z,62.17
2018-09-04T05:44:37.844Z,62.70
2018-09-04T05:47:07.819Z,61.97
2018-09-04T05:49:37.823Z,62.13
2018-09-04T05:52:07.480Z,63.80
2018-09-04T05:54:37.258Z,63.67
2018-09-04T05:57:07.033Z,63.00
2018-09-04T05:59:36.723Z,64.10
2018-09-04T06:02:06.516Z,62.73
2018-09-04T06:04:36.111Z,59.57
2018-09-04T06:07:05.748Z,60.97
2018-09-04T06:09:35.400Z,58.73
2018-09-04T06:12:05.018Z,56.27
2018-09-04T06:14:34.671Z,57.13
2018-09-04T06:17:04.436Z,57.53
2018-09-04T06:19:33.999Z,54.80
2018-09-04T06:22:03.593Z,52.83
2018-09-04T06:24:33.279Z,50.90
2018-09-04T06:27:02.930Z,50.07
2018-09-04T06:29:32.783Z,48.80
2018-09-04T06:32:02.552Z,47.47
2018-09-04T06:34:32.185Z,46.10
2018-09-04T06:37:01.853Z,47.83
2018-09-04T06:39:31.482Z,51.90
2018-09-04T06:42:01.117Z,51.43
2018-09-04T06:44:30.803Z,53.03
2018-09-04T06:47:00.473Z,55.80
2018-09-04T06:49:30.160Z,53.63
2018-09-04T06:51:59.844Z,55.27
2018-09-04T06:54:30.207Z,55.73
2018-09-04T06:56:59.857Z,56.80
2018-09-04T06:59:29.656Z,60.43
2018-09-04T07:01:59.366Z,61.37
2018-09-04T07:04:28.936Z,62.40
2018-09-04T07:06:58.702Z,63.23
2018-09-04T07:09:28.370Z,64.17
2018-09-04T07:11:58.099Z,64.73
2018-09-04T07:14:27.737Z,66.63
2018-09-04T07:16:57.326Z,64.93
2018-09-04T07:19:27.010Z,67.13
2018-09-04T07:21:56.638Z,67.37
2018-09-04T07:24:26.230Z,64.60
2018-09-04T07:26:55.855Z,64.63
2018-09-04T07:29:25.524Z,61.43
2018-09-04T07:31:55.153Z,66.40
2018-09-04T07:34:24.782Z,63.83
2018-09-04T07:36:54.438Z,62.83
2018-09-04T07:39:23.982Z,60.33
2018-09-04T07:41:53.649Z,65.57
2018-09-04T07:44:23.274Z,59.00
2018-09-04T07:46:52.816Z,60.37
2018-09-04T07:49:22.432Z,60.67
2018-09-04T07:51:52.072Z,57.93
2018-09-04T07:54:21.716Z,61.17
2018-09-04T07:56:51.783Z,59.50
2018-09-04T07:59:21.572Z,59.47
2018-09-04T08:01:52.618Z,59.43
2018-09-04T08:04:22.707Z,57.17
2018-09-04T08:06:53.297Z,58.27
2018-09-04T08:09:23.148Z,58.37
2018-09-04T08:11:53.112Z,57.10
2018-09-04T08:14:22.832Z,56.63
2018-09-04T08:16:59.755Z,54.50
2018-09-04T08:19:29.540Z,53.20
2018-09-04T08:21:59.123Z,52.13
2018-09-04T08:24:28.832Z,53.53
2018-09-04T08:26:58.429Z,56.33
2018-09-04T08:29:28.025Z,56.57
2018-09-04T08:31:57.585Z,58.03
2018-09-04T08:34:27.360Z,56.93
2018-09-04T08:36:56.951Z,53.67
2018-09-04T08:39:26.617Z,53.77
2018-09-04T08:41:56.369Z,55.30
2018-09-04T08:44:31.428Z,54.43
2018-09-04T08:47:01.061Z,57.27
2018-09-04T08:49:30.688Z,56.70
2018-09-04T08:52:00.440Z,54.47
2018-09-04T08:54:30.096Z,56.10
2018-09-04T08:57:00.374Z,52.50
2018-09-04T08:59:30.516Z,53.43
2018-09-04T09:02:00.267Z,52.07
2018-09-04T09:04:29.962Z,49.20
2018-09-04T09:06:59.561Z,48.73
2018-09-04T09:09:29.128Z,45.33
2018-09-04T09:11:58.761Z,46.30
2018-09-04T09:14:28.408Z,40.30
2018-09-04T09:16:58.513Z,39.30
2018-09-04T09:19:28.155Z,36.07
2018-09-04T09:21:58.118Z,35.20
2018-09-04T09:24:27.944Z,36.77
2018-09-04T09:26:57.893Z,34.33
2018-09-04T09:29:27.580Z,32.67
2018-09-04T09:31:57.567Z,35.30
2018-09-04T09:34:27.790Z,35.90
2018-09-04T09:36:57.957Z,36.30
2018-09-04T09:39:27.616Z,33.53
2018-09-04T09:41:57.413Z,35.03
2018-09-04T09:44:27.164Z,31.37
2018-09-04T09:47:03.844Z,30.30
2018-09-04T09:49:33.891Z,30.57
2018-09-04T09:52:03.518Z,30.27
2018-09-04T09:54:33.185Z,26.97
2018-09-04T09:57:02.771Z,26.63
2018-09-04T09:59:32.440Z,30.00
2018-09-04T10:02:07.488Z,28.93
2018-09-04T10:04:37.155Z,29.60
2018-09-04T10:07:06.891Z,29.93
2018-09-04T10:09:36.541Z,30.03
2018-09-04T10:12:06.249Z,31.50
2018-09-04T10:14:36.683Z,29.90
2018-09-04T10:17:06.414Z,32.03
2018-09-04T10:19:36.025Z,33.50
2018-09-04T10:22:05.778Z,34.67
2018-09-04T10:24:35.451Z,25.43
2018-09-04T10:27:05.668Z,24.23
2018-09-04T10:29:35.317Z,22.50
2018-09-04T10:32:05.352Z,23.13
2018-09-04T10:34:34.949Z,23.90
2018-09-04T10:37:04.647Z,23.63
2018-09-04T10:39:39.498Z,23.20
2018-09-04T10:42:09.073Z,24.37
2018-09-04T10:44:38.659Z,24.30
2018-09-04T10:47:08.399Z,22.70
2018-09-04T10:49:38.082Z,22.63
2018-09-04T10:52:07.625Z,24.83
2018-09-04T10:54:37.366Z,23.93
2018-09-04T10:57:07.232Z,23.27
2018-09-04T10:59:36.844Z,25.90
2018-09-04T11:02:06.657Z,23.20
2018-09-04T11:04:36.203Z,23.47
2018-09-04T11:07:05.959Z,24.33
2018-09-04T11:09:35.700Z,23.63
2018-09-04T11:12:05.554Z,21.87
2018-09-04T11:14:35.199Z,21.80
2018-09-04T11:17:05.036Z,23.30
2018-09-04T11:19:34.620Z,21.50
2018-09-04T11:22:04.591Z,24.03
2018-09-04T11:24:34.267Z,29.60
2018-09-04T11:27:04.071Z,27.90
2018-09-04T11:29:33.685Z,25.47
2018-09-04T11:32:03.301Z,24.77
2018-09-04T11:34:32.971Z,26.27
2018-09-04T11:37:02.582Z,26.93
2018-09-04T11:39:32.217Z,24.07
2018-09-04T11:42:01.879Z,26.03
2018-09-04T11:44:31.452Z,27.00
2018-09-04T11:47:02.675Z,25.93
2018-09-04T11:49:32.271Z,24.80
2018-09-04T11:52:01.919Z,25.77
2018-09-04T11:54:31.512Z,25.80
2018-09-04T11:57:01.156Z,25.30
2018-09-04T11:59:34.831Z,25.07
2018-09-04T12:02:04.526Z,23.43
2018-09-04T12:04:34.196Z,23.40
2018-09-04T12:07:03.840Z,23.13
2018-09-04T12:09:33.548Z,23.60
2018-09-04T12:12:03.235Z,20.53
2018-09-04T12:14:37.095Z,19.13
2018-09-04T12:17:09.018Z,19.70
2018-09-04T12:21:03.528Z,18.83
2018-09-04T12:23:33.339Z,19.30
2018-09-04T12:26:04.192Z,18.13
2018-09-04T12:28:33.845Z,17.27
2018-09-04T12:31:03.812Z,16.13
2018-09-04T12:33:33.484Z,15.87
2018-09-04T12:36:03.115Z,15.67
2018-09-04T12:38:38.664Z,13.87
2018-09-04T12:41:15.618Z,14.47
2018-09-04T12:43:45.329Z,14.47
2018-09-04T12:46:14.994Z,14.00
2018-09-04T12:48:51.772Z,14.27
2018-09-04T12:51:21.338Z,13.20
2018-09-04T12:53:50.939Z,14.03
2018-09-04T12:56:20.526Z,15.07
2018-09-04T12:58:50.133Z,13.60
2018-09-04T13:01:19.842Z,12.03
2018-09-04T13:03:49.519Z,12.77
2018-09-04T13:06:19.262Z,11.60
2018-09-04T13:08:49.246Z,12.17
2018-09-04T13:11:18.883Z,13.50
2018-09-04T13:13:48.539Z,13.67
2018-09-04T13:16:18.263Z,12.97
2018-09-04T13:18:48.009Z,12.07
2018-09-04T13:21:22.189Z,12.67
2018-09-04T13:23:51.762Z,11.60
2018-09-04T13:26:21.413Z,12.20
2018-09-04T13:28:51.058Z,12.80
2018-09-04T13:31:20.716Z,12.13
2018-09-04T13:33:50.664Z,12.30
2018-09-04T13:36:20.450Z,12.23
2018-09-04T13:38:50.148Z,12.30
2018-09-04T13:41:19.802Z,12.77
2018-09-04T13:43:49.461Z,13.53
2018-09-04T13:46:19.589Z,12.43
2018-09-04T13:48:49.319Z,12.73
2018-09-04T13:51:19.497Z,12.73
2018-09-04T13:53:49.113Z,11.60
2018-09-04T13:56:19.161Z,11.77
2018-09-04T13:58:48.808Z,11.83
2018-09-04T14:01:18.816Z,11.87
2018-09-04T14:03:48.539Z,11.73
2018-09-04T14:06:18.259Z,10.90
2018-09-04T14:08:47.999Z,11.37
2018-09-04T14:11:17.881Z,11.23
2018-09-04T14:13:47.520Z,11.63
2018-09-04T14:16:19.779Z,12.33
2018-09-04T14:18:49.455Z,10.93
2018-09-04T14:21:19.315Z,11.67
2018-09-04T14:23:49.040Z,11.53
2018-09-04T14:26:18.769Z,10.67
2018-09-04T14:29:06.432Z,10.93
2018-09-04T14:31:18.151Z,10.90
2018-09-04T14:33:47.792Z,11.40
2018-09-04T14:36:17.445Z,10.90
2018-09-04T14:38:46.965Z,9.83
2018-09-04T14:41:16.623Z,10.27
2018-09-04T14:43:46.177Z,9.93
2018-09-04T14:46:15.733Z,10.50
2018-09-04T14:48:45.448Z,10.37
2018-09-04T14:51:15.023Z,11.37
2018-09-04T14:53:44.694Z,9.80
2018-09-04T14:56:14.287Z,10.57
2018-09-04T14:58:43.961Z,10.67
2018-09-04T15:01:13.575Z,10.50
2018-09-04T15:03:43.125Z,11.37
2018-09-04T15:06:12.853Z,10.10
2018-09-04T15:08:42.520Z,10.00
2018-09-04T15:11:12.354Z,10.37
2018-09-04T15:13:42.013Z,9.03
2018-09-04T15:16:11.721Z,9.83
2018-09-04T15:18:41.405Z,9.77
2018-09-04T15:21:11.069Z,10.33
2018-09-04T15:23:40.702Z,10.20
2018-09-04T15:26:10.453Z,9.30
2018-09-04T15:28:40.149Z,9.87
2018-09-04T15:31:09.822Z,10.13
2018-09-04T15:33:39.490Z,9.40
2018-09-04T15:36:09.171Z,10.10
2018-09-04T15:38:38.776Z,9.93
2018-09-04T15:41:08.452Z,9.93
2018-09-04T15:43:38.127Z,9.77
2018-09-04T15:46:07.983Z,9.70
2018-09-04T15:48:37.906Z,10.10
2018-09-04T15:51:08.016Z,10.80
2018-09-04T15:53:37.706Z,10.30
2018-09-04T15:56:07.688Z,9.43
2018-09-04T15:58:37.306Z,10.40
2018-09-04T16:01:07.052Z,9.60
2018-09-04T16:03:36.801Z,10.10
2018-09-04T16:06:06.440Z,10.10
2018-09-04T16:08:36.123Z,9.87
2018-09-04T16:11:05.819Z,9.67
2018-09-04T16:13:35.518Z,9.80
2018-09-04T16:16:05.226Z,10.37
2018-09-04T16:18:34.957Z,10.00
2018-09-04T16:21:04.935Z,10.17
2018-09-04T16:23:34.708Z,9.37
2018-09-04T16:26:04.625Z,10.20
2018-09-04T16:28:34.252Z,9.60
2018-09-04T16:31:04.021Z,10.40
2018-09-04T16:33:33.940Z,9.57
2018-09-04T16:36:03.588Z,10.23
2018-09-04T16:38:33.555Z,10.10
2018-09-04T16:41:03.200Z,10.33
2018-09-04T16:43:59.910Z,9.63
2018-09-04T16:46:30.073Z,10.43
2018-09-04T16:48:59.824Z,10.30
2018-09-04T16:51:29.558Z,10.00
2018-09-04T16:53:59.268Z,10.87
2018-09-04T16:56:29.081Z,10.27
2018-09-04T16:58:58.691Z,10.93
2018-09-04T17:01:28.406Z,10.37
2018-09-04T17:03:58.175Z,10.63
2018-09-04T17:06:28.068Z,10.83
2018-09-04T17:08:57.733Z,10.33
2018-09-04T17:11:27.376Z,10.40
2018-09-04T17:13:57.148Z,10.47
2018-09-04T17:16:26.881Z,11.13
2018-09-04T17:18:56.470Z,11.07
2018-09-04T17:21:26.250Z,10.63
2018-09-04T17:23:55.851Z,10.90
2018-09-04T17:26:25.606Z,10.70
2018-09-04T17:28:55.237Z,11.03
2018-09-04T17:31:25.055Z,10.93
2018-09-04T17:33:54.667Z,11.30
2018-09-04T17:36:24.329Z,10.70
2018-09-04T17:38:54.007Z,10.30
2018-09-04T17:41:26.154Z,10.80
2018-09-04T17:43:55.785Z,12.37
2018-09-04T17:46:25.466Z,11.00
2018-09-04T17:48:55.202Z,12.20
2018-09-04T17:51:28.900Z,11.03
2018-09-04T17:53:58.621Z,10.80
2018-09-04T17:56:28.336Z,11.33
2018-09-04T17:58:58.073Z,11.67
2018-09-04T18:01:27.748Z,11.97
2018-09-04T18:03:57.421Z,12.13
2018-09-04T18:06:27.152Z,11.90
2018-09-04T18:08:56.862Z,11.93
2018-09-04T18:11:26.611Z,11.93
2018-09-04T18:13:56.342Z,12.43
2018-09-04T18:16:26.324Z,12.07
2018-09-04T18:18:56.026Z,11.97
2018-09-04T18:21:25.657Z,11.87
2018-09-04T18:23:55.200Z,12.97
2018-09-04T18:26:24.855Z,12.37
2018-09-04T18:28:54.439Z,12.70
2018-09-04T18:31:24.116Z,12.33
2018-09-04T18:33:53.719Z,12.67
2018-09-04T18:36:23.345Z,12.47
2018-09-04T18:38:53.135Z,12.47
2018-09-04T18:41:22.870Z,12.07
2018-09-04T18:43:52.483Z,11.97
2018-09-04T18:46:22.137Z,12.90
2018-09-04T18:48:54.831Z,11.93
2018-09-04T18:51:25.512Z,12.07
2018-09-04T18:53:55.715Z,12.47
2018-09-04T18:56:25.423Z,12.93
2018-09-04T18:58:55.146Z,13.40
2018-09-04T19:01:24.867Z,12.00
2018-09-04T19:03:54.532Z,13.67
2018-09-04T19:06:24.368Z,13.37
2018-09-04T19:08:53.987Z,13.27
2018-09-04T19:11:23.657Z,13.40
2018-09-04T19:13:53.366Z,12.87
2018-09-04T19:16:23.049Z,12.90
2018-09-04T19:18:52.648Z,13.10
2018-09-04T19:21:22.397Z,12.20
2018-09-04T19:23:51.985Z,13.10
2018-09-04T19:26:21.732Z,14.40
2018-09-04T19:28:51.367Z,14.47
2018-09-04T19:31:21.214Z,15.20
2018-09-04T19:33:50.842Z,14.60
2018-09-04T19:36:20.490Z,13.80
2018-09-04T19:38:50.196Z,14.93
2018-09-04T19:41:19.918Z,13.37
2018-09-04T19:43:49.614Z,13.00
2018-09-04T19:46:19.662Z,13.27
2018-09-04T19:48:49.394Z,13.27
2018-09-04T19:51:19.000Z,12.73
2018-09-04T19:53:48.705Z,13.50
2018-09-04T19:56:18.437Z,13.20
2018-09-04T19:58:48.124Z,12.17
2018-09-04T20:01:17.735Z,12.30
2018-09-04T20:03:47.958Z,12.90
2018-09-04T20:06:17.629Z,13.40
2018-09-04T20:08:47.385Z,12.60
2018-09-04T20:11:16.985Z,13.50
2018-09-04T20:13:46.844Z,15.50
2018-09-04T20:16:16.647Z,13.67
2018-09-04T20:18:46.217Z,13.67
2018-09-04T20:21:15.896Z,13.70
2018-09-04T20:23:45.528Z,13.90
2018-09-04T20:26:15.197Z,14.27
2018-09-04T20:28:44.821Z,14.57
2018-09-04T20:31:14.494Z,15.77
2018-09-04T20:33:44.494Z,14.30
2018-09-04T20:36:14.155Z,14.70
2018-09-04T20:38:43.797Z,13.73
2018-09-04T20:41:13.659Z,15.03
2018-09-04T20:43:43.335Z,15.07
2018-09-04T20:46:13.123Z,14.87
2018-09-04T20:48:42.921Z,14.70
2018-09-04T20:51:12.652Z,15.33
2018-09-04T20:53:42.577Z,14.43
2018-09-04T20:56:12.496Z,13.80
2018-09-04T20:58:58.646Z,13.83
2018-09-04T21:01:45.036Z,14.13
2018-09-04T21:04:31.290Z,13.40
2018-09-04T21:06:59.097Z,14.23
2018-09-04T21:09:40.192Z,17.07
2018-09-04T21:12:10.398Z,18.53
2018-09-04T21:14:40.043Z,16.00
2018-09-04T21:17:09.681Z,15.40
2018-09-04T21:19:39.480Z,14.97
2018-09-04T21:22:09.125Z,14.90
2018-09-04T21:24:38.880Z,14.77
2018-09-04T21:27:08.574Z,15.20
2018-09-04T21:29:38.402Z,15.07
2018-09-04T21:32:08.391Z,15.57
2018-09-04T21:34:37.972Z,15.73
2018-09-04T21:37:07.556Z,14.57
2018-09-04T21:39:37.283Z,28.20
2018-09-04T21:42:07.674Z,19.10
2018-09-04T21:44:37.389Z,19.93
2018-09-04T21:47:07.058Z,21.03
2018-09-04T21:49:36.700Z,19.30
2018-09-04T21:52:06.511Z,18.17
2018-09-04T21:54:36.151Z,17.87
2018-09-04T21:57:05.857Z,16.30
2018-09-04T21:59:35.648Z,17.50
2018-09-04T22:02:05.393Z,15.73
2018-09-04T22:04:35.447Z,16.97
2018-09-04T22:07:05.195Z,15.10
2018-09-04T22:09:37.475Z,16.07
2018-09-04T22:12:10.226Z,16.03
2018-09-04T22:14:40.455Z,16.13
2018-09-04T22:17:10.111Z,15.90
2018-09-04T22:19:39.836Z,16.00
2018-09-04T22:22:09.691Z,17.07
2018-09-04T22:24:39.392Z,16.53
2018-09-04T22:27:10.406Z,16.40
2018-09-04T22:29:43.579Z,16.07
2018-09-04T22:32:14.019Z,15.57
2018-09-04T22:34:43.770Z,15.83
2018-09-04T22:37:13.352Z,15.80
2018-09-04T22:39:43.062Z,16.23
2018-09-04T22:42:12.688Z,15.50
2018-09-04T22:44:42.290Z,15.47
2018-09-04T22:47:11.850Z,16.43
2018-09-04T22:49:46.533Z,16.13
2018-09-04T22:52:16.167Z,15.90
2018-09-04T22:54:45.875Z,15.57
2018-09-04T22:57:15.467Z,16.17
2018-09-04T22:59:45.077Z,15.77
2018-09-04T23:02:14.720Z,16.60
2018-09-04T23:04:44.555Z,16.80
2018-09-04T23:07:14.304Z,17.60
2018-09-04T23:09:43.872Z,17.77
2018-09-04T23:12:13.910Z,17.17
2018-09-04T23:14:43.578Z,17.63
2018-09-04T23:17:13.331Z,16.90
2018-09-04T23:19:42.981Z,17.87
2018-09-04T23:22:12.575Z,17.03
2018-09-04T23:24:42.211Z,16.87
2018-09-04T23:27:11.864Z,16.97
2018-09-04T23:29:41.463Z,17.43
2018-09-04T23:32:10.982Z,18.30
2018-09-04T23:34:47.197Z,17.77
2018-09-04T23:37:16.948Z,17.37
2018-09-04T23:39:46.674Z,17.37
2018-09-04T23:42:16.401Z,16.47
2018-09-04T23:44:45.951Z,17.97
2018-09-04T23:47:15.537Z,18.03
2018-09-04T23:49:45.434Z,20.20
2018-09-04T23:52:14.998Z,17.70
2018-09-04T23:54:44.559Z,18.37
2018-09-04T23:57:14.342Z,18.53
2018-09-04T23:59:43.949Z,19.13
